Kydon — SWBZ — position and weather

sailwx.info

Track history (hours):
 
Tides and Currents Weather Stations Pressure Air Temp Water Temp Dewpoint Dewpoint Depression Visibility Wind Speed Wind Dir Waves Ship Positions

Kydon

Last reported at 2016-May-05 15:34 UTC. Time now 2016-May-05 16:15 UTC.
Position N 37°56' E 023°38'.

Length 192 m; draft 6.1 m.

Type: Passenger vessel. MMSI: 239593000.

Date/timePositionNaut miles runAvg speedWind from/ knotsBaromVisibWave heightAir tempDewpointWater temp
2016-May-05 15:34N 37°56' E 023°38'0 0.0
2016-May-05 14:34N 37°56' E 023°38'0 0.0
2016-May-05 13:34N 37°56' E 023°38'0 0.0
2016-May-05 12:33N 37°56' E 023°38'0 0.0
2016-May-05 11:33N 37°56' E 023°38'0 0.0
2016-May-05 10:33N 37°56' E 023°38'0 0.0
2016-May-05 09:33N 37°56' E 023°38'0 0.0
2016-May-05 08:33N 37°56' E 023°38'0 0.0
2016-May-05 07:34N 37°56' E 023°38'0 0.0
2016-May-05 06:33N 37°56' E 023°38'0 0.0
2016-May-05 05:34N 37°56' E 023°38'0 0.0
2016-May-05 04:33N 37°56' E 023°38'3 2.9
2016-May-05 03:34N 37°54' E 023°38'2020.1
2016-May-05 02:34N 37°35' E 023°47'2120.5
2016-May-05 01:33N 37°15' E 023°55'4 0.1
2016-May-03 20:25N 37°18' E 023°53'1820.4
2016-May-03 19:33N 37°35' E 023°45'2020.0
2016-May-03 18:33N 37°54' E 023°37'3 2.8
2016-May-03 17:34N 37°56' E 023°37'0 0.0
2016-May-03 16:34N 37°56' E 023°37'0 0.0
2016-May-03 15:33N 37°56' E 023°37'0 0.0
2016-May-03 14:34N 37°56' E 023°37'0 0.0
2016-May-03 13:34N 37°56' E 023°37'0 0.0
2016-May-03 12:34N 37°56' E 023°37'0 0.0
2016-May-03 11:34N 37°56' E 023°37'0 0.0
2016-May-03 10:33N 37°56' E 023°37'0 0.0
2016-May-03 09:33N 37°56' E 023°37'0 0.0
2016-May-03 08:33N 37°56' E 023°37'0 0.0
2016-May-03 07:33N 37°56' E 023°37'0 0.0
2016-May-03 06:34N 37°56' E 023°37'0 0.0
2016-May-03 05:34N 37°56' E 023°37'0 0.0
2016-May-03 04:34N 37°56' E 023°37'0 0.0
2016-May-03 03:34N 37°56' E 023°37'8 8.4
2016-May-03 02:33N 37°49' E 023°41'2020.3
2016-May-03 01:34N 37°29' E 023°50'  
2016-Apr-29 13:33N 37°11' E 023°56'2121.1
2016-Apr-29 12:33N 37°30' E 023°46'2120.9
2016-Apr-29 11:33N 37°50' E 023°37'7 7.0
2016-Apr-29 10:33N 37°57' E 023°38'0 0.0
2016-Apr-29 09:33N 37°57' E 023°38'0 0.0
2016-Apr-29 08:33N 37°57' E 023°38'0 0.0
2016-Apr-29 07:33N 37°57' E 023°38'0 0.0
2016-Apr-29 06:33N 37°57' E 023°38'0 0.0
2016-Apr-29 05:33N 37°57' E 023°38'0 0.0
2016-Apr-29 04:33N 37°57' E 023°38'0 0.0
2016-Apr-29 03:33N 37°57' E 023°38'9 9.1
2016-Apr-29 02:34N 37°48' E 023°42'2019.6
2016-Apr-29 01:33N 37°30' E 023°50'2020.0
2016-Apr-29 00:33N 37°11' E 023°58'2019.8
2016-Apr-28 23:33N 36°52' E 024°05'7 0.3
2016-Apr-27 22:33N 36°45' E 024°08'2121.1
2016-Apr-27 21:33N 37°04' E 023°59'2121.1
2016-Apr-27 20:33N 37°24' E 023°50'2120.8
2016-Apr-27 19:34N 37°44' E 023°40'1313.3
2016-Apr-27 18:33N 37°57' E 023°38'0 0.0
2016-Apr-27 17:33N 37°57' E 023°38'0 0.0
2016-Apr-27 16:33N 37°57' E 023°38'0 0.0
2016-Apr-27 15:33N 37°57' E 023°38'0 0.0
2016-Apr-27 14:33N 37°57' E 023°38'0 0.0
2016-Apr-27 13:33N 37°57' E 023°38'0 0.0
2016-Apr-27 12:33N 37°57' E 023°38'0 0.0
2016-Apr-27 11:33N 37°57' E 023°38'0 0.0
2016-Apr-27 10:33N 37°57' E 023°38'0 0.0
2016-Apr-27 09:33N 37°57' E 023°38'0 0.0
2016-Apr-27 08:33N 37°57' E 023°38'0 0.0
2016-Apr-27 07:33N 37°57' E 023°38'0 0.0
2016-Apr-27 06:33N 37°57' E 023°38'0 0.0
2016-Apr-27 05:33N 37°57' E 023°38'0 0.0
2016-Apr-27 04:33N 37°57' E 023°38'3 2.8
2016-Apr-27 03:34N 37°54' E 023°38'2019.7
2016-Apr-27 02:34N 37°36' E 023°47'2020.2
2016-Apr-27 01:33N 37°17' E 023°55'5 0.2
2016-Apr-25 20:33N 37°21' E 023°52'2121.0
2016-Apr-25 19:34N 37°40' E 023°42'1717.0
2016-Apr-25 18:34N 37°57' E 023°38'0 0.1
2016-Apr-25 17:33N 37°57' E 023°38'0 0.0
2016-Apr-25 16:33N 37°57' E 023°38'  
Track history (hours):
 
Tides and Currents Weather Stations Pressure Air Temp Water Temp Dewpoint Dewpoint Depression Visibility Wind Speed Wind Dir Waves Ship Positions

Kydon

Last reported at 2016-May-05 15:34 UTC. Time now 2016-May-05 16:15 UTC.
Position N 37°56' E 023°38'.

Length 192 m; draft 6.1 m.

Type: Passenger vessel. MMSI: 239593000.

Date/timePositionNaut miles runAvg speedWind from/ knotsBaromVisibWave heightAir tempDewpointWater temp
2016-May-05 15:34N 37°56' E 023°38'0 0.0
2016-May-05 14:34N 37°56' E 023°38'0 0.0
2016-May-05 13:34N 37°56' E 023°38'0 0.0
2016-May-05 12:33N 37°56' E 023°38'0 0.0
2016-May-05 11:33N 37°56' E 023°38'0 0.0
2016-May-05 10:33N 37°56' E 023°38'0 0.0
2016-May-05 09:33N 37°56' E 023°38'0 0.0
2016-May-05 08:33N 37°56' E 023°38'0 0.0
2016-May-05 07:34N 37°56' E 023°38'0 0.0
2016-May-05 06:33N 37°56' E 023°38'0 0.0
2016-May-05 05:34N 37°56' E 023°38'0 0.0
2016-May-05 04:33N 37°56' E 023°38'3 2.9
2016-May-05 03:34N 37°54' E 023°38'2020.1
2016-May-05 02:34N 37°35' E 023°47'2120.5
2016-May-05 01:33N 37°15' E 023°55'4 0.1
2016-May-03 20:25N 37°18' E 023°53'1820.4
2016-May-03 19:33N 37°35' E 023°45'2020.0
2016-May-03 18:33N 37°54' E 023°37'3 2.8
2016-May-03 17:34N 37°56' E 023°37'0 0.0
2016-May-03 16:34N 37°56' E 023°37'0 0.0
2016-May-03 15:33N 37°56' E 023°37'0 0.0
2016-May-03 14:34N 37°56' E 023°37'0 0.0
2016-May-03 13:34N 37°56' E 023°37'0 0.0
2016-May-03 12:34N 37°56' E 023°37'0 0.0
2016-May-03 11:34N 37°56' E 023°37'0 0.0
2016-May-03 10:33N 37°56' E 023°37'0 0.0
2016-May-03 09:33N 37°56' E 023°37'0 0.0
2016-May-03 08:33N 37°56' E 023°37'0 0.0
2016-May-03 07:33N 37°56' E 023°37'0 0.0
2016-May-03 06:34N 37°56' E 023°37'0 0.0
2016-May-03 05:34N 37°56' E 023°37'0 0.0
2016-May-03 04:34N 37°56' E 023°37'0 0.0
2016-May-03 03:34N 37°56' E 023°37'8 8.4
2016-May-03 02:33N 37°49' E 023°41'2020.3
2016-May-03 01:34N 37°29' E 023°50'  
2016-Apr-29 13:33N 37°11' E 023°56'2121.1
2016-Apr-29 12:33N 37°30' E 023°46'2120.9
2016-Apr-29 11:33N 37°50' E 023°37'7 7.0
2016-Apr-29 10:33N 37°57' E 023°38'0 0.0
2016-Apr-29 09:33N 37°57' E 023°38'0 0.0
2016-Apr-29 08:33N 37°57' E 023°38'0 0.0
2016-Apr-29 07:33N 37°57' E 023°38'0 0.0
2016-Apr-29 06:33N 37°57' E 023°38'0 0.0
2016-Apr-29 05:33N 37°57' E 023°38'0 0.0
2016-Apr-29 04:33N 37°57' E 023°38'0 0.0
2016-Apr-29 03:33N 37°57' E 023°38'9 9.1
2016-Apr-29 02:34N 37°48' E 023°42'2019.6
2016-Apr-29 01:33N 37°30' E 023°50'2020.0
2016-Apr-29 00:33N 37°11' E 023°58'2019.8
2016-Apr-28 23:33N 36°52' E 024°05'7 0.3
2016-Apr-27 22:33N 36°45' E 024°08'2121.1
2016-Apr-27 21:33N 37°04' E 023°59'2121.1
2016-Apr-27 20:33N 37°24' E 023°50'2120.8
2016-Apr-27 19:34N 37°44' E 023°40'1313.3
2016-Apr-27 18:33N 37°57' E 023°38'0 0.0
2016-Apr-27 17:33N 37°57' E 023°38'0 0.0
2016-Apr-27 16:33N 37°57' E 023°38'0 0.0
2016-Apr-27 15:33N 37°57' E 023°38'0 0.0
2016-Apr-27 14:33N 37°57' E 023°38'0 0.0
2016-Apr-27 13:33N 37°57' E 023°38'0 0.0
2016-Apr-27 12:33N 37°57' E 023°38'0 0.0
2016-Apr-27 11:33N 37°57' E 023°38'0 0.0
2016-Apr-27 10:33N 37°57' E 023°38'0 0.0
2016-Apr-27 09:33N 37°57' E 023°38'0 0.0
2016-Apr-27 08:33N 37°57' E 023°38'0 0.0
2016-Apr-27 07:33N 37°57' E 023°38'0 0.0
2016-Apr-27 06:33N 37°57' E 023°38'0 0.0
2016-Apr-27 05:33N 37°57' E 023°38'0 0.0
2016-Apr-27 04:33N 37°57' E 023°38'3 2.8
2016-Apr-27 03:34N 37°54' E 023°38'2019.7
2016-Apr-27 02:34N 37°36' E 023°47'2020.2
2016-Apr-27 01:33N 37°17' E 023°55'5 0.2
2016-Apr-25 20:33N 37°21' E 023°52'2121.0
2016-Apr-25 19:34N 37°40' E 023°42'1717.0
2016-Apr-25 18:34N 37°57' E 023°38'0 0.1
2016-Apr-25 17:33N 37°57' E 023°38'0 0.0
2016-Apr-25 16:33N 37°57' E 023°38'  

Dump ship's entire track history